sensor_id;sensor_type;location;lat;lon;timestamp;pressure;altitude;pressure_sealevel;temperature;humidity
79331;BME280;68797;49.782;19.054;2024-02-14T00:01:27;97652.03;;;2.65;95.51
79331;BME280;68797;49.782;19.054;2024-02-14T00:03:56;97636.19;;;2.42;95.79
79331;BME280;68797;49.782;19.054;2024-02-14T00:06:35;97656.25;;;2.42;96.40
79331;BME280;68797;49.782;19.054;2024-02-14T00:09:05;97655.41;;;2.43;97.34
79331;BME280;68797;49.782;19.054;2024-02-14T00:11:33;97648.44;;;2.45;97.84
79331;BME280;68797;49.782;19.054;2024-02-14T00:14:01;97647.53;;;2.43;96.57
79331;BME280;68797;49.782;19.054;2024-02-14T00:16:29;97648.34;;;2.29;97.90
79331;BME280;68797;49.782;19.054;2024-02-14T00:19:02;97651.91;;;2.42;98.80
79331;BME280;68797;49.782;19.054;2024-02-14T00:21:32;97657.13;;;2.39;98.31
79331;BME280;68797;49.782;19.054;2024-02-14T00:24:00;97655.44;;;2.50;98.89
79331;BME280;68797;49.782;19.054;2024-02-14T00:26:30;97638.78;;;2.38;98.48
79331;BME280;68797;49.782;19.054;2024-02-14T00:28:57;97645.75;;;2.34;98.50
79331;BME280;68797;49.782;19.054;2024-02-14T00:31:26;97653.63;;;2.40;99.75
79331;BME280;68797;49.782;19.054;2024-02-14T00:34:11;97660.69;;;2.55;100.00
79331;BME280;68797;49.782;19.054;2024-02-14T00:36:43;97655.50;;;2.59;98.73
79331;BME280;68797;49.782;19.054;2024-02-14T00:39:12;97652.91;;;2.61;98.28
79331;BME280;68797;49.782;19.054;2024-02-14T00:41:41;97654.63;;;2.60;97.51
79331;BME280;68797;49.782;19.054;2024-02-14T00:44:09;97640.66;;;2.57;97.73
79331;BME280;68797;49.782;19.054;2024-02-14T00:46:47;97649.47;;;2.70;97.84
79331;BME280;68797;49.782;19.054;2024-02-14T00:49:16;97665.91;;;2.47;98.67
79331;BME280;68797;49.782;19.054;2024-02-14T00:51:43;97654.59;;;2.51;99.04
79331;BME280;68797;49.782;19.054;2024-02-14T00:54:11;97638.84;;;2.48;98.62
79331;BME280;68797;49.782;19.054;2024-02-14T00:56:49;97662.53;;;2.67;99.06
79331;BME280;68797;49.782;19.054;2024-02-14T00:59:16;97646.84;;;2.67;97.96
79331;BME280;68797;49.782;19.054;2024-02-14T01:01:45;97660.00;;;2.77;97.92
79331;BME280;68797;49.782;19.054;2024-02-14T01:04:12;97662.56;;;2.74;97.73
79331;BME280;68797;49.782;19.054;2024-02-14T01:06:42;97653.84;;;2.72;97.61
79331;BME280;68797;49.782;19.054;2024-02-14T01:09:10;97656.41;;;2.65;96.92
79331;BME280;68797;49.782;19.054;2024-02-14T01:11:40;97652.03;;;2.63;96.59
79331;BME280;68797;49.782;19.054;2024-02-14T01:14:07;97654.66;;;2.63;96.22
79331;BME280;68797;49.782;19.054;2024-02-14T01:16:48;97658.06;;;2.49;95.72
79331;BME280;68797;49.782;19.054;2024-02-14T01:19:17;97640.53;;;2.37;96.42
79331;BME280;68797;49.782;19.054;2024-02-14T01:21:46;97651.00;;;2.37;97.42
79331;BME280;68797;49.782;19.054;2024-02-14T01:24:14;97652.69;;;2.32;96.71
79331;BME280;68797;49.782;19.054;2024-02-14T01:26:44;97650.09;;;2.32;98.07
79331;BME280;68797;49.782;19.054;2024-02-14T01:29:12;97643.09;;;2.26;96.98
79331;BME280;68797;49.782;19.054;2024-02-14T01:31:39;97651.81;;;2.30;96.93
79331;BME280;68797;49.782;19.054;2024-02-14T01:34:07;97648.25;;;2.17;96.68
79331;BME280;68797;49.782;19.054;2024-02-14T01:36:38;97641.09;;;1.96;97.68
79331;BME280;68797;49.782;19.054;2024-02-14T01:39:10;97641.13;;;1.99;98.33
79331;BME280;68797;49.782;19.054;2024-02-14T01:41:47;97643.81;;;2.06;97.79
79331;BME280;68797;49.782;19.054;2024-02-14T01:44:16;97645.53;;;2.05;96.96
79331;BME280;68797;49.782;19.054;2024-02-14T01:46:47;97638.47;;;1.95;97.17
79331;BME280;68797;49.782;19.054;2024-02-14T01:49:15;97640.13;;;1.84;97.89
79331;BME280;68797;49.782;19.054;2024-02-14T01:51:43;97638.31;;;1.75;98.70
79331;BME280;68797;49.782;19.054;2024-02-14T01:54:15;97639.19;;;1.77;98.28
79331;BME280;68797;49.782;19.054;2024-02-14T01:56:46;97634.88;;;1.79;99.20
79331;BME280;68797;49.782;19.054;2024-02-14T01:59:13;97641.03;;;1.87;99.09
79331;BME280;68797;49.782;19.054;2024-02-14T02:01:48;97638.44;;;1.89;99.21
79331;BME280;68797;49.782;19.054;2024-02-14T02:04:19;97651.56;;;1.95;99.66
79331;BME280;68797;49.782;19.054;2024-02-14T02:06:51;97634.97;;;1.90;99.42
79331;BME280;68797;49.782;19.054;2024-02-14T02:09:24;97643.78;;;2.01;98.98
79331;BME280;68797;49.782;19.054;2024-02-14T02:11:55;97646.41;;;2.04;98.75
79331;BME280;68797;49.782;19.054;2024-02-14T02:14:42;97642.06;;;2.09;99.20
79331;BME280;68797;49.782;19.054;2024-02-14T02:17:32;97643.88;;;2.13;98.53
79331;BME280;68797;49.782;19.054;2024-02-14T02:20:23;97647.38;;;2.20;98.76
79331;BME280;68797;49.782;19.054;2024-02-14T02:22:51;97647.41;;;2.21;98.76
79331;BME280;68797;49.782;19.054;2024-02-14T02:25:38;97639.59;;;2.27;98.02
79331;BME280;68797;49.782;19.054;2024-02-14T02:28:29;97635.25;;;2.29;97.10
79331;BME280;68797;49.782;19.054;2024-02-14T02:30:57;97636.19;;;2.39;95.81
79331;BME280;68797;49.782;19.054;2024-02-14T02:33:24;97650.22;;;2.50;96.22
79331;BME280;68797;49.782;19.054;2024-02-14T02:35:53;97644.97;;;2.46;96.35
79331;BME280;68797;49.782;19.054;2024-02-14T02:38:40;97656.31;;;2.45;96.38
79331;BME280;68797;49.782;19.054;2024-02-14T02:41:27;97652.81;;;2.49;96.41
79331;BME280;68797;49.782;19.054;2024-02-14T02:44:14;97649.34;;;2.48;96.41
79331;BME280;68797;49.782;19.054;2024-02-14T02:47:05;97643.19;;;2.43;96.71
79331;BME280;68797;49.782;19.054;2024-02-14T02:49:57;97658.06;;;2.50;97.53
79331;BME280;68797;49.782;19.054;2024-02-14T02:52:48;97656.38;;;2.55;97.59
79331;BME280;68797;49.782;19.054;2024-02-14T02:55:38;97658.94;;;2.49;97.75
79331;BME280;68797;49.782;19.054;2024-02-14T02:58:06;97640.56;;;2.43;97.62
79331;BME280;68797;49.782;19.054;2024-02-14T03:00:34;97653.75;;;2.55;97.20
79331;BME280;68797;49.782;19.054;2024-02-14T03:03:17;97647.59;;;2.50;96.88
79331;BME280;68797;49.782;19.054;2024-02-14T03:06:07;97667.72;;;2.57;97.88
79331;BME280;68797;49.782;19.054;2024-02-14T03:08:58;97672.09;;;2.61;97.53
79331;BME280;68797;49.782;19.054;2024-02-14T03:11:48;97663.31;;;2.55;98.02
79331;BME280;68797;49.782;19.054;2024-02-14T03:14:37;97658.94;;;2.51;97.68
79331;BME280;68797;49.782;19.054;2024-02-14T03:17:27;97666.81;;;2.52;98.56
79331;BME280;68797;49.782;19.054;2024-02-14T03:19:56;97673.84;;;2.64;97.79
79331;BME280;68797;49.782;19.054;2024-02-14T03:22:24;97674.72;;;2.65;96.96
79331;BME280;68797;49.782;19.054;2024-02-14T03:24:51;97669.50;;;2.61;96.95
79331;BME280;68797;49.782;19.054;2024-02-14T03:27:18;97671.19;;;2.55;97.47
79331;BME280;68797;49.782;19.054;2024-02-14T03:29:46;97667.69;;;2.54;96.61
79331;BME280;68797;49.782;19.054;2024-02-14T03:32:23;97665.09;;;2.56;96.66
79331;BME280;68797;49.782;19.054;2024-02-14T03:34:50;97659.72;;;2.36;97.58
79331;BME280;68797;49.782;19.054;2024-02-14T03:37:23;97671.94;;;2.36;97.62
79331;BME280;68797;49.782;19.054;2024-02-14T03:39:52;97668.44;;;2.33;97.78
79331;BME280;68797;49.782;19.054;2024-02-14T03:42:20;97670.94;;;2.21;98.46
79331;BME280;68797;49.782;19.054;2024-02-14T03:44:47;97668.31;;;2.15;98.34
79331;BME280;68797;49.782;19.054;2024-02-14T03:47:15;97669.16;;;2.11;97.88
79331;BME280;68797;49.782;19.054;2024-02-14T03:49:41;97676.16;;;2.14;97.45
79331;BME280;68797;49.782;19.054;2024-02-14T03:52:09;97670.84;;;2.08;97.88
79331;BME280;68797;49.782;19.054;2024-02-14T03:54:37;97675.19;;;2.01;98.64
79331;BME280;68797;49.782;19.054;2024-02-14T03:57:09;97674.31;;;2.02;98.20
79331;BME280;68797;49.782;19.054;2024-02-14T03:59:37;97684.78;;;2.05;97.72
79331;BME280;68797;49.782;19.054;2024-02-14T04:02:08;97671.59;;;1.91;98.42
79331;BME280;68797;49.782;19.054;2024-02-14T04:04:36;97669.00;;;1.93;98.04
79331;BME280;68797;49.782;19.054;2024-02-14T04:07:08;97653.13;;;1.74;98.19
79331;BME280;68797;49.782;19.054;2024-02-14T04:09:36;97680.34;;;1.92;98.34
79331;BME280;68797;49.782;19.054;2024-02-14T04:12:03;97678.53;;;1.88;97.75
79331;BME280;68797;49.782;19.054;2024-02-14T04:14:30;97683.75;;;1.85;98.32
79331;BME280;68797;49.782;19.054;2024-02-14T04:17:00;97685.47;;;1.81;97.82
79331;BME280;68797;49.782;19.054;2024-02-14T04:19:26;97674.03;;;1.70;98.18
79331;BME280;68797;49.782;19.054;2024-02-14T04:21:58;97693.19;;;1.67;98.58
79331;BME280;68797;49.782;19.054;2024-02-14T04:24:30;97692.25;;;1.64;99.45
79331;BME280;68797;49.782;19.054;2024-02-14T04:27:01;97698.44;;;1.69;99.30
79331;BME280;68797;49.782;19.054;2024-02-14T04:29:34;97680.81;;;1.53;99.39
79331;BME280;68797;49.782;19.054;2024-02-14T04:32:07;97678.25;;;1.56;99.42
79331;BME280;68797;49.782;19.054;2024-02-14T04:34:35;97693.97;;;1.59;99.08
79331;BME280;68797;49.782;19.054;2024-02-14T04:37:09;97691.38;;;1.62;98.86
79331;BME280;68797;49.782;19.054;2024-02-14T04:39:40;97690.59;;;1.69;98.32
79331;BME280;68797;49.782;19.054;2024-02-14T04:42:06;97695.81;;;1.70;98.14
79331;BME280;68797;49.782;19.054;2024-02-14T04:44:36;97695.03;;;1.78;97.85
79331;BME280;68797;49.782;19.054;2024-02-14T04:47:04;97694.09;;;1.74;97.76
79331;BME280;68797;49.782;19.054;2024-02-14T04:49:32;97684.50;;;1.71;97.51
79331;BME280;68797;49.782;19.054;2024-02-14T04:51:59;97701.09;;;1.75;97.70
79331;BME280;68797;49.782;19.054;2024-02-14T04:54:27;97712.41;;;1.74;97.25
79331;BME280;68797;49.782;19.054;2024-02-14T04:57:00;97703.66;;;1.67;97.30
79331;BME280;68797;49.782;19.054;2024-02-14T04:59:27;97710.53;;;1.59;97.73
79331;BME280;68797;49.782;19.054;2024-02-14T05:01:56;97695.56;;;1.44;98.43
79331;BME280;68797;49.782;19.054;2024-02-14T05:04:24;97706.91;;;1.45;98.64
79331;BME280;68797;49.782;19.054;2024-02-14T05:06:53;97711.28;;;1.49;98.36
79331;BME280;68797;49.782;19.054;2024-02-14T05:09:20;97706.03;;;1.44;98.36
79331;BME280;68797;49.782;19.054;2024-02-14T05:11:48;97704.22;;;1.39;98.65
79331;BME280;68797;49.782;19.054;2024-02-14T05:14:16;97707.66;;;1.33;98.55
79331;BME280;68797;49.782;19.054;2024-02-14T05:16:47;97705.94;;;1.37;98.77
79331;BME280;68797;49.782;19.054;2024-02-14T05:19:42;97719.00;;;1.38;97.88
79331;BME280;68797;49.782;19.054;2024-02-14T05:22:52;97709.41;;;1.36;98.45
79331;BME280;68797;49.782;19.054;2024-02-14T05:25:21;97704.94;;;1.26;98.86
79331;BME280;68797;49.782;19.054;2024-02-14T05:27:58;97706.72;;;1.30;98.74
79331;BME280;68797;49.782;19.054;2024-02-14T05:30:26;97706.78;;;1.34;98.77
79331;BME280;68797;49.782;19.054;2024-02-14T05:33:08;97711.31;;;1.52;97.23
79331;BME280;68797;49.782;19.054;2024-02-14T05:35:34;97711.34;;;1.55;96.63
79331;BME280;68797;49.782;19.054;2024-02-14T05:38:01;97711.25;;;1.44;96.93
79331;BME280;68797;49.782;19.054;2024-02-14T05:40:28;97701.56;;;1.34;97.37
79331;BME280;68797;49.782;19.054;2024-02-14T05:42:55;97705.84;;;1.31;96.84
79331;BME280;68797;49.782;19.054;2024-02-14T05:45:22;97721.53;;;1.31;97.22
79331;BME280;68797;49.782;19.054;2024-02-14T05:47:49;97711.88;;;1.22;96.85
79331;BME280;68797;49.782;19.054;2024-02-14T05:50:24;97704.09;;;1.31;96.05
79331;BME280;68797;49.782;19.054;2024-02-14T05:53:37;97705.81;;;1.26;96.75
79331;BME280;68797;49.782;19.054;2024-02-14T05:56:04;97709.25;;;1.22;97.46
79331;BME280;68797;49.782;19.054;2024-02-14T05:58:31;97709.19;;;1.19;97.64
79331;BME280;68797;49.782;19.054;2024-02-14T06:00:59;97717.75;;;1.07;98.88
79331;BME280;68797;49.782;19.054;2024-02-14T06:03:28;97720.41;;;1.10;99.16
79331;BME280;68797;49.782;19.054;2024-02-14T06:06:00;97716.97;;;1.11;98.78
79331;BME280;68797;49.782;19.054;2024-02-14T06:08:27;97717.88;;;1.15;99.07
79331;BME280;68797;49.782;19.054;2024-02-14T06:10:54;97730.94;;;1.13;98.49
79331;BME280;68797;49.782;19.054;2024-02-14T06:13:21;97722.22;;;1.16;97.84
79331;BME280;68797;49.782;19.054;2024-02-14T06:15:47;97721.38;;;1.19;97.70
79331;BME280;68797;49.782;19.054;2024-02-14T06:18:14;97722.13;;;1.07;97.57
79331;BME280;68797;49.782;19.054;2024-02-14T06:20:42;97734.47;;;1.19;97.02
79331;BME280;68797;49.782;19.054;2024-02-14T06:23:14;97732.66;;;1.13;97.11
79331;BME280;68797;49.782;19.054;2024-02-14T06:25:41;97727.56;;;1.22;97.39
79331;BME280;68797;49.782;19.054;2024-02-14T06:28:11;97725.78;;;1.21;96.89
79331;BME280;68797;49.782;19.054;2024-02-14T06:30:38;97722.34;;;1.25;96.86
79331;BME280;68797;49.782;19.054;2024-02-14T06:33:05;97737.28;;;1.34;97.09
79331;BME280;68797;49.782;19.054;2024-02-14T06:35:34;97743.41;;;1.39;97.12
79331;BME280;68797;49.782;19.054;2024-02-14T06:38:03;97751.28;;;1.42;97.26
79331;BME280;68797;49.782;19.054;2024-02-14T06:40:30;97747.78;;;1.40;97.29
79331;BME280;68797;49.782;19.054;2024-02-14T06:43:01;97748.78;;;1.51;97.01
79331;BME280;68797;49.782;19.054;2024-02-14T06:45:28;97755.78;;;1.55;96.08
79331;BME280;68797;49.782;19.054;2024-02-14T06:48:05;97757.53;;;1.55;97.12
79331;BME280;68797;49.782;19.054;2024-02-14T06:50:34;97751.50;;;1.60;96.55
79331;BME280;68797;49.782;19.054;2024-02-14T06:53:01;97752.47;;;1.68;96.32
79331;BME280;68797;49.782;19.054;2024-02-14T06:55:28;97755.00;;;1.59;96.54
79331;BME280;68797;49.782;19.054;2024-02-14T06:58:01;97739.41;;;1.70;95.79
79331;BME280;68797;49.782;19.054;2024-02-14T07:00:29;97751.66;;;1.75;96.53
79331;BME280;68797;49.782;19.054;2024-02-14T07:02:59;97744.75;;;1.81;95.78
79331;BME280;68797;49.782;19.054;2024-02-14T07:05:26;97749.22;;;1.91;96.19
79331;BME280;68797;49.782;19.054;2024-02-14T07:07:56;97750.09;;;1.90;95.96
79331;BME280;68797;49.782;19.054;2024-02-14T07:10:25;97755.09;;;1.68;96.83
79331;BME280;68797;49.782;19.054;2024-02-14T07:12:53;97759.56;;;1.79;97.28
79331;BME280;68797;49.782;19.054;2024-02-14T07:15:22;97754.34;;;1.80;96.91
79331;BME280;68797;49.782;19.054;2024-02-14T07:17:52;97754.34;;;1.82;96.75
79331;BME280;68797;49.782;19.054;2024-02-14T07:20:20;97759.50;;;1.74;96.90
79331;BME280;68797;49.782;19.054;2024-02-14T07:22:47;97757.00;;;1.85;96.58
79331;BME280;68797;49.782;19.054;2024-02-14T07:25:19;97756.13;;;1.84;96.49
79331;BME280;68797;49.782;19.054;2024-02-14T07:27:47;97752.66;;;1.85;96.43
79331;BME280;68797;49.782;19.054;2024-02-14T07:30:16;97757.88;;;1.84;96.57
79331;BME280;68797;49.782;19.054;2024-02-14T07:32:44;97755.25;;;1.85;97.05
79331;BME280;68797;49.782;19.054;2024-02-14T07:35:11;97757.09;;;1.94;95.86
79331;BME280;68797;49.782;19.054;2024-02-14T07:37:43;97741.50;;;2.04;94.72
79331;BME280;68797;49.782;19.054;2024-02-14T07:40:10;97742.38;;;2.07;95.71
79331;BME280;68797;49.782;19.054;2024-02-14T07:42:59;97749.38;;;2.09;94.96
79331;BME280;68797;49.782;19.054;2024-02-14T07:45:26;97742.38;;;2.07;95.21
79331;BME280;68797;49.782;19.054;2024-02-14T07:47:53;97748.56;;;2.13;95.31
79331;BME280;68797;49.782;19.054;2024-02-14T07:50:20;97751.19;;;2.13;95.10
79331;BME280;68797;49.782;19.054;2024-02-14T07:52:48;97747.72;;;2.19;94.71
79331;BME280;68797;49.782;19.054;2024-02-14T07:55:14;97747.81;;;2.28;93.82
79331;BME280;68797;49.782;19.054;2024-02-14T07:57:42;97746.13;;;2.33;94.69
79331;BME280;68797;49.782;19.054;2024-02-14T08:00:10;97751.38;;;2.33;94.71
79331;BME280;68797;49.782;19.054;2024-02-14T08:02:37;97749.66;;;2.41;94.55
79331;BME280;68797;49.782;19.054;2024-02-14T08:05:03;97753.19;;;2.45;94.43
79331;BME280;68797;49.782;19.054;2024-02-14T08:07:32;97761.16;;;2.61;92.50
79331;BME280;68797;49.782;19.054;2024-02-14T08:10:00;97748.16;;;2.71;91.53
79331;BME280;68797;49.782;19.054;2024-02-14T08:12:27;97752.59;;;2.87;92.34
79331;BME280;68797;49.782;19.054;2024-02-14T08:14:54;97749.16;;;2.97;91.50
79331;BME280;68797;49.782;19.054;2024-02-14T08:17:21;97749.22;;;3.00;91.49
79331;BME280;68797;49.782;19.054;2024-02-14T08:19:48;97753.63;;;3.12;91.66
79331;BME280;68797;49.782;19.054;2024-02-14T08:22:15;97755.38;;;3.13;91.33
79331;BME280;68797;49.782;19.054;2024-02-14T08:24:42;97744.03;;;3.12;90.13
79331;BME280;68797;49.782;19.054;2024-02-14T08:27:09;97757.03;;;2.97;89.30
79331;BME280;68797;49.782;19.054;2024-02-14T08:29:36;97756.25;;;3.12;89.48
79331;BME280;68797;49.782;19.054;2024-02-14T08:32:04;97753.59;;;3.09;87.95
79331;BME280;68797;49.782;19.054;2024-02-14T08:34:31;97757.97;;;3.10;89.10
79331;BME280;68797;49.782;19.054;2024-02-14T08:36:57;97754.56;;;3.25;89.05
79331;BME280;68797;49.782;19.054;2024-02-14T08:39:24;97750.25;;;3.39;89.63
79331;BME280;68797;49.782;19.054;2024-02-14T08:41:51;97752.06;;;3.47;88.82
79331;BME280;68797;49.782;19.054;2024-02-14T08:44:17;97750.34;;;3.63;87.46
79331;BME280;68797;49.782;19.054;2024-02-14T08:46:44;97734.63;;;3.75;85.97
79331;BME280;68797;49.782;19.054;2024-02-14T08:49:14;97739.91;;;3.88;86.47
79331;BME280;68797;49.782;19.054;2024-02-14T08:51:41;97744.31;;;4.05;83.88
79331;BME280;68797;49.782;19.054;2024-02-14T08:54:10;97747.00;;;4.22;83.57
79331;BME280;68797;49.782;19.054;2024-02-14T08:56:37;97747.84;;;4.32;82.63
79331;BME280;68797;49.782;19.054;2024-02-14T08:59:05;97750.50;;;4.44;81.11
79331;BME280;68797;49.782;19.054;2024-02-14T09:01:37;97757.47;;;4.71;82.26
79331;BME280;68797;49.782;19.054;2024-02-14T09:04:03;97749.59;;;4.82;80.09
79331;BME280;68797;49.782;19.054;2024-02-14T09:06:29;97743.41;;;4.98;79.46
79331;BME280;68797;49.782;19.054;2024-02-14T09:08:56;97750.38;;;5.23;79.69
79331;BME280;68797;49.782;19.054;2024-02-14T09:11:22;97742.34;;;5.57;76.81
79331;BME280;68797;49.782;19.054;2024-02-14T09:13:49;97741.44;;;5.66;74.87
79331;BME280;68797;49.782;19.054;2024-02-14T09:16:19;97733.47;;;5.79;73.77
79331;BME280;68797;49.782;19.054;2024-02-14T09:18:48;97729.91;;;5.87;71.07
79331;BME280;68797;49.782;19.054;2024-02-14T09:21:14;97722.84;;;5.98;71.28
79331;BME280;68797;49.782;19.054;2024-02-14T09:23:42;97721.94;;;6.05;73.14
79331;BME280;68797;49.782;19.054;2024-02-14T09:26:11;97727.09;;;6.22;72.54
79331;BME280;68797;49.782;19.054;2024-02-14T09:28:40;97721.66;;;6.45;70.63
79331;BME280;68797;49.782;19.054;2024-02-14T09:31:07;97722.44;;;6.51;71.74
79331;BME280;68797;49.782;19.054;2024-02-14T09:33:36;97724.09;;;6.64;71.44
79331;BME280;68797;49.782;19.054;2024-02-14T09:36:03;97731.91;;;6.78;70.42
79331;BME280;68797;49.782;19.054;2024-02-14T09:38:30;97722.03;;;6.95;68.35
79331;BME280;68797;49.782;19.054;2024-02-14T09:41:19;97728.41;;;6.73;66.03
79331;BME280;68797;49.782;19.054;2024-02-14T09:43:48;97729.56;;;6.45;68.86
79331;BME280;68797;49.782;19.054;2024-02-14T09:46:15;97725.25;;;6.33;67.09
79331;BME280;68797;49.782;19.054;2024-02-14T09:48:45;97738.50;;;6.24;68.63
79331;BME280;68797;49.782;19.054;2024-02-14T09:51:13;97734.69;;;6.60;68.86
79331;BME280;68797;49.782;19.054;2024-02-14T09:53:39;97733.78;;;6.62;67.16
79331;BME280;68797;49.782;19.054;2024-02-14T09:56:09;97727.56;;;6.71;66.28
79331;BME280;68797;49.782;19.054;2024-02-14T09:58:36;97733.66;;;6.78;65.37
79331;BME280;68797;49.782;19.054;2024-02-14T10:01:07;97734.59;;;6.70;67.22
79331;BME280;68797;49.782;19.054;2024-02-14T10:03:33;97730.19;;;6.73;67.33
79331;BME280;68797;49.782;19.054;2024-02-14T10:06:03;97724.84;;;6.76;66.40
79331;BME280;68797;49.782;19.054;2024-02-14T10:08:33;97725.56;;;6.94;66.27
79331;BME280;68797;49.782;19.054;2024-02-14T10:11:01;97728.91;;;7.13;63.40
79331;BME280;68797;49.782;19.054;2024-02-14T10:13:30;97730.63;;;7.16;63.65
79331;BME280;68797;49.782;19.054;2024-02-14T10:16:04;97721.63;;;7.34;68.94
79331;BME280;68797;49.782;19.054;2024-02-14T10:18:35;97728.56;;;7.41;65.24
79331;BME280;68797;49.782;19.054;2024-02-14T10:21:03;97729.31;;;7.52;61.38
79331;BME280;68797;49.782;19.054;2024-02-14T10:23:30;97735.50;;;7.51;61.34
79331;BME280;68797;49.782;19.054;2024-02-14T10:25:59;97718.84;;;7.46;61.05
79331;BME280;68797;49.782;19.054;2024-02-14T10:28:26;97725.16;;;7.31;59.49
79331;BME280;68797;49.782;19.054;2024-02-14T10:30:54;97723.34;;;7.38;60.67
79331;BME280;68797;49.782;19.054;2024-02-14T10:33:21;97712.72;;;7.41;59.04
79331;BME280;68797;49.782;19.054;2024-02-14T10:35:49;97710.97;;;7.41;61.43
79331;BME280;68797;49.782;19.054;2024-02-14T10:38:19;97710.94;;;7.46;61.08
79331;BME280;68797;49.782;19.054;2024-02-14T10:40:48;97722.63;;;7.20;59.26
79331;BME280;68797;49.782;19.054;2024-02-14T10:43:16;97708.50;;;7.27;59.41
79331;BME280;68797;49.782;19.054;2024-02-14T10:45:45;97718.28;;;7.21;60.93
79331;BME280;68797;49.782;19.054;2024-02-14T10:48:14;97712.09;;;7.22;61.55
79331;BME280;68797;49.782;19.054;2024-02-14T10:50:44;97713.75;;;7.32;62.68
79331;BME280;68797;49.782;19.054;2024-02-14T10:53:15;97713.72;;;7.34;60.22
79331;BME280;68797;49.782;19.054;2024-02-14T10:55:49;97711.13;;;7.29;61.24
79331;BME280;68797;49.782;19.054;2024-02-14T10:58:18;97709.34;;;7.33;60.87
79331;BME280;68797;49.782;19.054;2024-02-14T11:00:47;97698.66;;;7.40;64.07
79331;BME280;68797;49.782;19.054;2024-02-14T11:03:18;97688.00;;;7.49;62.97
79331;BME280;68797;49.782;19.054;2024-02-14T11:05:47;97692.34;;;7.52;60.77
79331;BME280;68797;49.782;19.054;2024-02-14T11:08:14;97690.59;;;7.51;61.10
79331;BME280;68797;49.782;19.054;2024-02-14T11:10:55;97687.91;;;7.57;63.72
79331;BME280;68797;49.782;19.054;2024-02-14T11:13:30;97685.41;;;7.46;60.91
79331;BME280;68797;49.782;19.054;2024-02-14T11:16:02;97682.78;;;7.45;61.46
79331;BME280;68797;49.782;19.054;2024-02-14T11:18:34;97683.63;;;7.47;64.22
79331;BME280;68797;49.782;19.054;2024-02-14T11:21:03;97679.16;;;7.52;63.47
79331;BME280;68797;49.782;19.054;2024-02-14T11:23:31;97682.56;;;7.60;62.84
79331;BME280;68797;49.782;19.054;2024-02-14T11:26:00;97678.25;;;7.54;63.95
79331;BME280;68797;49.782;19.054;2024-02-14T11:28:29;97674.84;;;7.45;61.50
79331;BME280;68797;49.782;19.054;2024-02-14T11:31:03;97666.09;;;7.40;61.56
79331;BME280;68797;49.782;19.054;2024-02-14T11:33:30;97665.13;;;7.48;60.99
79331;BME280;68797;49.782;19.054;2024-02-14T11:35:57;97677.34;;;7.55;60.61
79331;BME280;68797;49.782;19.054;2024-02-14T11:38:30;97676.56;;;7.49;60.95
79331;BME280;68797;49.782;19.054;2024-02-14T11:40:56;97662.72;;;7.32;60.81
79331;BME280;68797;49.782;19.054;2024-02-14T11:43:23;97660.81;;;7.41;62.14
79331;BME280;68797;49.782;19.054;2024-02-14T11:45:50;97667.03;;;7.37;60.00
79331;BME280;68797;49.782;19.054;2024-02-14T11:48:20;97664.19;;;7.51;61.34
79331;BME280;68797;49.782;19.054;2024-02-14T11:50:48;97655.47;;;7.46;64.61
79331;BME280;68797;49.782;19.054;2024-02-14T11:53:15;97649.28;;;7.48;61.81
79331;BME280;68797;49.782;19.054;2024-02-14T11:55:47;97644.09;;;7.41;62.02
79331;BME280;68797;49.782;19.054;2024-02-14T11:58:15;97642.22;;;7.50;61.98
79331;BME280;68797;49.782;19.054;2024-02-14T12:00:44;97639.66;;;7.44;60.26
79331;BME280;68797;49.782;19.054;2024-02-14T12:03:22;97633.25;;;7.62;62.12
79331;BME280;68797;49.782;19.054;2024-02-14T12:05:53;97633.28;;;7.59;60.88
79331;BME280;68797;49.782;19.054;2024-02-14T12:08:20;97634.06;;;7.67;61.41
79331;BME280;68797;49.782;19.054;2024-02-14T12:10:55;97632.28;;;7.68;61.79
79331;BME280;68797;49.782;19.054;2024-02-14T12:13:23;97625.06;;;7.80;60.59
79331;BME280;68797;49.782;19.054;2024-02-14T12:15:51;97630.25;;;7.85;61.12
79331;BME280;68797;49.782;19.054;2024-02-14T12:18:19;97625.16;;;7.73;59.03
79331;BME280;68797;49.782;19.054;2024-02-14T12:20:46;97625.97;;;7.79;60.83
79331;BME280;68797;49.782;19.054;2024-02-14T12:23:16;97630.22;;;7.86;59.70
79331;BME280;68797;49.782;19.054;2024-02-14T12:25:45;97630.34;;;7.80;59.58
79331;BME280;68797;49.782;19.054;2024-02-14T12:28:16;97627.47;;;7.94;59.34
79331;BME280;68797;49.782;19.054;2024-02-14T12:30:49;97629.19;;;7.97;59.96
79331;BME280;68797;49.782;19.054;2024-02-14T12:33:19;97625.59;;;8.02;59.02
79331;BME280;68797;49.782;19.054;2024-02-14T12:35:47;97628.22;;;8.04;61.14
79331;BME280;68797;49.782;19.054;2024-02-14T12:38:18;97634.28;;;8.10;58.04
79331;BME280;68797;49.782;19.054;2024-02-14T12:40:46;97627.16;;;8.14;57.48
79331;BME280;68797;49.782;19.054;2024-02-14T12:43:15;97634.13;;;8.18;59.42
79331;BME280;68797;49.782;19.054;2024-02-14T12:45:47;97624.41;;;8.20;60.57
79331;BME280;68797;49.782;19.054;2024-02-14T12:48:23;97616.31;;;8.29;59.31
79331;BME280;68797;49.782;19.054;2024-02-14T12:50:55;97615.41;;;8.33;59.84
79331;BME280;68797;49.782;19.054;2024-02-14T12:53:26;97611.00;;;8.31;60.31
79331;BME280;68797;49.782;19.054;2024-02-14T12:55:53;97615.28;;;8.42;58.26
79331;BME280;68797;49.782;19.054;2024-02-14T12:58:20;97608.13;;;8.48;61.01
79331;BME280;68797;49.782;19.054;2024-02-14T13:00:48;97605.38;;;8.52;59.13
79331;BME280;68797;49.782;19.054;2024-02-14T13:03:16;97607.13;;;8.55;57.05
79331;BME280;68797;49.782;19.054;2024-02-14T13:05:45;97612.34;;;8.58;55.92
79331;BME280;68797;49.782;19.054;2024-02-14T13:08:14;97609.84;;;8.49;57.99
79331;BME280;68797;49.782;19.054;2024-02-14T13:10:48;97609.09;;;8.42;58.92
79331;BME280;68797;49.782;19.054;2024-02-14T13:13:16;97597.72;;;8.37;60.33
79331;BME280;68797;49.782;19.054;2024-02-14T13:15:46;97599.53;;;8.35;59.61
79331;BME280;68797;49.782;19.054;2024-02-14T13:18:12;97604.78;;;8.36;60.83